sensor_id;sensor_type;location;lat;lon;timestamp;P1;durP1;ratioP1;P2;durP2;ratioP2
20445;SDS011;10382;49.140;9.234;2024-01-15T00:00:55;47.70;;;16.33;;
20445;SDS011;10382;49.140;9.234;2024-01-15T00:03:22;40.38;;;15.05;;
20445;SDS011;10382;49.140;9.234;2024-01-15T00:05:49;43.53;;;15.93;;
20445;SDS011;10382;49.140;9.234;2024-01-15T00:08:18;38.20;;;16.52;;
20445;SDS011;10382;49.140;9.234;2024-01-15T00:10:44;38.70;;;14.75;;
20445;SDS011;10382;49.140;9.234;2024-01-15T00:13:11;35.85;;;14.15;;
20445;SDS011;10382;49.140;9.234;2024-01-15T00:15:38;43.50;;;15.95;;
20445;SDS011;10382;49.140;9.234;2024-01-15T00:18:05;39.00;;;16.35;;
20445;SDS011;10382;49.140;9.234;2024-01-15T00:20:32;37.33;;;15.07;;
20445;SDS011;10382;49.140;9.234;2024-01-15T00:22:59;44.30;;;15.63;;
20445;SDS011;10382;49.140;9.234;2024-01-15T00:25:27;32.90;;;15.82;;
20445;SDS011;10382;49.140;9.234;2024-01-15T00:27:54;43.53;;;14.77;;
20445;SDS011;10382;49.140;9.234;2024-01-15T00:30:21;55.58;;;17.60;;
20445;SDS011;10382;49.140;9.234;2024-01-15T00:32:48;40.40;;;14.95;;
20445;SDS011;10382;49.140;9.234;2024-01-15T00:35:15;41.53;;;15.43;;
20445;SDS011;10382;49.140;9.234;2024-01-15T00:37:41;40.85;;;15.73;;
20445;SDS011;10382;49.140;9.234;2024-01-15T00:40:09;33.28;;;13.93;;
20445;SDS011;10382;49.140;9.234;2024-01-15T00:42:37;47.47;;;15.48;;
20445;SDS011;10382;49.140;9.234;2024-01-15T00:45:04;46.47;;;14.98;;
20445;SDS011;10382;49.140;9.234;2024-01-15T00:47:32;37.47;;;14.27;;
20445;SDS011;10382;49.140;9.234;2024-01-15T00:49:59;44.58;;;14.23;;
20445;SDS011;10382;49.140;9.234;2024-01-15T00:52:26;32.53;;;14.15;;
20445;SDS011;10382;49.140;9.234;2024-01-15T00:54:53;40.58;;;15.73;;
20445;SDS011;10382;49.140;9.234;2024-01-15T00:57:20;38.38;;;13.88;;
20445;SDS011;10382;49.140;9.234;2024-01-15T00:59:48;34.47;;;14.07;;
20445;SDS011;10382;49.140;9.234;2024-01-15T01:02:15;45.97;;;14.65;;
20445;SDS011;10382;49.140;9.234;2024-01-15T01:04:42;44.85;;;14.55;;
20445;SDS011;10382;49.140;9.234;2024-01-15T01:07:09;35.78;;;11.77;;
20445;SDS011;10382;49.140;9.234;2024-01-15T01:09:36;38.85;;;13.77;;
20445;SDS011;10382;49.140;9.234;2024-01-15T01:12:02;48.15;;;15.73;;
20445;SDS011;10382;49.140;9.234;2024-01-15T01:14:30;41.47;;;16.08;;
20445;SDS011;10382;49.140;9.234;2024-01-15T01:16:58;31.67;;;13.48;;
20445;SDS011;10382;49.140;9.234;2024-01-15T01:19:24;34.15;;;14.70;;
20445;SDS011;10382;49.140;9.234;2024-01-15T01:21:51;40.55;;;15.10;;
20445;SDS011;10382;49.140;9.234;2024-01-15T01:24:18;41.33;;;15.20;;
20445;SDS011;10382;49.140;9.234;2024-01-15T01:26:45;31.92;;;13.98;;
20445;SDS011;10382;49.140;9.234;2024-01-15T01:29:12;38.90;;;15.00;;
20445;SDS011;10382;49.140;9.234;2024-01-15T01:31:42;42.20;;;15.60;;
20445;SDS011;10382;49.140;9.234;2024-01-15T01:34:10;35.97;;;15.55;;
20445;SDS011;10382;49.140;9.234;2024-01-15T01:36:39;43.00;;;14.23;;
20445;SDS011;10382;49.140;9.234;2024-01-15T01:39:06;36.83;;;13.40;;
20445;SDS011;10382;49.140;9.234;2024-01-15T01:41:34;37.90;;;14.35;;
20445;SDS011;10382;49.140;9.234;2024-01-15T01:44:01;36.20;;;15.52;;
20445;SDS011;10382;49.140;9.234;2024-01-15T01:46:27;44.72;;;13.75;;
20445;SDS011;10382;49.140;9.234;2024-01-15T01:48:55;45.45;;;15.85;;
20445;SDS011;10382;49.140;9.234;2024-01-15T01:51:24;50.40;;;14.70;;
20445;SDS011;10382;49.140;9.234;2024-01-15T01:53:51;41.95;;;14.68;;
20445;SDS011;10382;49.140;9.234;2024-01-15T01:56:18;35.90;;;15.80;;
20445;SDS011;10382;49.140;9.234;2024-01-15T01:58:45;32.38;;;14.15;;
20445;SDS011;10382;49.140;9.234;2024-01-15T02:01:13;41.35;;;14.88;;
20445;SDS011;10382;49.140;9.234;2024-01-15T02:03:42;36.47;;;13.65;;
20445;SDS011;10382;49.140;9.234;2024-01-15T02:06:09;36.15;;;14.35;;
20445;SDS011;10382;49.140;9.234;2024-01-15T02:08:38;31.75;;;12.88;;
20445;SDS011;10382;49.140;9.234;2024-01-15T02:11:05;40.55;;;15.27;;
20445;SDS011;10382;49.140;9.234;2024-01-15T02:13:32;43.85;;;14.60;;
20445;SDS011;10382;49.140;9.234;2024-01-15T02:15:59;36.25;;;13.75;;
20445;SDS011;10382;49.140;9.234;2024-01-15T02:18:26;26.10;;;11.95;;
20445;SDS011;10382;49.140;9.234;2024-01-15T02:20:52;35.80;;;14.52;;
20445;SDS011;10382;49.140;9.234;2024-01-15T02:23:21;27.02;;;11.38;;
20445;SDS011;10382;49.140;9.234;2024-01-15T02:25:47;34.67;;;14.55;;
20445;SDS011;10382;49.140;9.234;2024-01-15T02:28:15;24.00;;;10.95;;
20445;SDS011;10382;49.140;9.234;2024-01-15T02:30:43;32.67;;;12.55;;
20445;SDS011;10382;49.140;9.234;2024-01-15T02:33:10;29.30;;;11.23;;
20445;SDS011;10382;49.140;9.234;2024-01-15T02:35:38;29.95;;;12.98;;
20445;SDS011;10382;49.140;9.234;2024-01-15T02:38:05;23.40;;;10.70;;
20445;SDS011;10382;49.140;9.234;2024-01-15T02:40:34;25.17;;;10.35;;
20445;SDS011;10382;49.140;9.234;2024-01-15T02:43:01;22.02;;;10.75;;
20445;SDS011;10382;49.140;9.234;2024-01-15T02:45:28;26.35;;;11.45;;
20445;SDS011;10382;49.140;9.234;2024-01-15T02:47:55;30.65;;;10.30;;
20445;SDS011;10382;49.140;9.234;2024-01-15T02:50:22;29.52;;;11.93;;
20445;SDS011;10382;49.140;9.234;2024-01-15T02:52:49;31.85;;;13.27;;
20445;SDS011;10382;49.140;9.234;2024-01-15T02:55:16;31.70;;;13.18;;
20445;SDS011;10382;49.140;9.234;2024-01-15T02:57:44;27.98;;;10.52;;
20445;SDS011;10382;49.140;9.234;2024-01-15T03:00:11;27.40;;;11.40;;
20445;SDS011;10382;49.140;9.234;2024-01-15T03:02:39;34.58;;;14.50;;
20445;SDS011;10382;49.140;9.234;2024-01-15T03:05:08;34.88;;;12.68;;
20445;SDS011;10382;49.140;9.234;2024-01-15T03:07:34;27.67;;;13.15;;
20445;SDS011;10382;49.140;9.234;2024-01-15T03:10:01;30.65;;;12.73;;
20445;SDS011;10382;49.140;9.234;2024-01-15T03:12:28;30.25;;;11.77;;
20445;SDS011;10382;49.140;9.234;2024-01-15T03:14:56;35.78;;;12.10;;
20445;SDS011;10382;49.140;9.234;2024-01-15T03:17:23;27.00;;;12.10;;
20445;SDS011;10382;49.140;9.234;2024-01-15T03:19:50;25.85;;;11.18;;
20445;SDS011;10382;49.140;9.234;2024-01-15T03:22:17;21.52;;;10.68;;
20445;SDS011;10382;49.140;9.234;2024-01-15T03:24:44;29.30;;;12.15;;
20445;SDS011;10382;49.140;9.234;2024-01-15T03:27:12;24.65;;;10.55;;
20445;SDS011;10382;49.140;9.234;2024-01-15T03:29:39;29.30;;;12.57;;
20445;SDS011;10382;49.140;9.234;2024-01-15T03:32:07;34.10;;;12.93;;
20445;SDS011;10382;49.140;9.234;2024-01-15T03:34:34;25.75;;;12.52;;
20445;SDS011;10382;49.140;9.234;2024-01-15T03:37:01;26.55;;;12.63;;
20445;SDS011;10382;49.140;9.234;2024-01-15T03:39:28;29.08;;;11.63;;
20445;SDS011;10382;49.140;9.234;2024-01-15T03:41:55;23.58;;;11.65;;
20445;SDS011;10382;49.140;9.234;2024-01-15T03:44:22;31.52;;;12.32;;
20445;SDS011;10382;49.140;9.234;2024-01-15T03:46:49;28.55;;;11.80;;
20445;SDS011;10382;49.140;9.234;2024-01-15T03:49:18;24.58;;;11.73;;
20445;SDS011;10382;49.140;9.234;2024-01-15T03:51:44;28.33;;;12.80;;
20445;SDS011;10382;49.140;9.234;2024-01-15T03:54:11;25.50;;;9.75;;
20445;SDS011;10382;49.140;9.234;2024-01-15T03:56:38;23.48;;;11.07;;
20445;SDS011;10382;49.140;9.234;2024-01-15T03:59:05;32.83;;;11.98;;
20445;SDS011;10382;49.140;9.234;2024-01-15T04:01:32;25.52;;;10.70;;
20445;SDS011;10382;49.140;9.234;2024-01-15T04:03:59;25.90;;;11.93;;
20445;SDS011;10382;49.140;9.234;2024-01-15T04:06:27;27.35;;;12.57;;
20445;SDS011;10382;49.140;9.234;2024-01-15T04:08:54;28.17;;;11.88;;
20445;SDS011;10382;49.140;9.234;2024-01-15T04:11:20;22.33;;;10.77;;
20445;SDS011;10382;49.140;9.234;2024-01-15T04:13:48;22.20;;;11.10;;
20445;SDS011;10382;49.140;9.234;2024-01-15T04:16:15;26.70;;;10.50;;
20445;SDS011;10382;49.140;9.234;2024-01-15T04:18:42;28.98;;;11.43;;
20445;SDS011;10382;49.140;9.234;2024-01-15T04:21:08;28.23;;;11.45;;
20445;SDS011;10382;49.140;9.234;2024-01-15T04:23:37;34.72;;;13.77;;
20445;SDS011;10382;49.140;9.234;2024-01-15T04:26:05;28.08;;;12.02;;
20445;SDS011;10382;49.140;9.234;2024-01-15T04:28:31;33.58;;;13.40;;
20445;SDS011;10382;49.140;9.234;2024-01-15T04:30:58;27.65;;;11.75;;
20445;SDS011;10382;49.140;9.234;2024-01-15T04:33:25;28.23;;;12.52;;
20445;SDS011;10382;49.140;9.234;2024-01-15T04:35:52;28.92;;;12.05;;
20445;SDS011;10382;49.140;9.234;2024-01-15T04:38:19;24.58;;;12.18;;
20445;SDS011;10382;49.140;9.234;2024-01-15T04:40:47;32.75;;;12.77;;
20445;SDS011;10382;49.140;9.234;2024-01-15T04:43:14;38.67;;;13.77;;
20445;SDS011;10382;49.140;9.234;2024-01-15T04:45:41;28.65;;;12.77;;
20445;SDS011;10382;49.140;9.234;2024-01-15T04:48:08;24.40;;;12.05;;
20445;SDS011;10382;49.140;9.234;2024-01-15T04:50:34;22.63;;;11.23;;
20445;SDS011;10382;49.140;9.234;2024-01-15T04:53:01;28.90;;;11.68;;
20445;SDS011;10382;49.140;9.234;2024-01-15T04:55:28;27.88;;;11.38;;
20445;SDS011;10382;49.140;9.234;2024-01-15T04:57:56;24.08;;;12.68;;
20445;SDS011;10382;49.140;9.234;2024-01-15T05:00:23;27.00;;;12.05;;
20445;SDS011;10382;49.140;9.234;2024-01-15T05:02:50;30.50;;;12.73;;
20445;SDS011;10382;49.140;9.234;2024-01-15T05:05:17;23.92;;;12.98;;
20445;SDS011;10382;49.140;9.234;2024-01-15T05:07:44;26.83;;;12.25;;
20445;SDS011;10382;49.140;9.234;2024-01-15T05:10:10;31.92;;;11.68;;
20445;SDS011;10382;49.140;9.234;2024-01-15T05:12:37;26.83;;;12.20;;
20445;SDS011;10382;49.140;9.234;2024-01-15T05:15:06;22.80;;;12.70;;
20445;SDS011;10382;49.140;9.234;2024-01-15T05:17:34;26.98;;;12.85;;
20445;SDS011;10382;49.140;9.234;2024-01-15T05:20:01;29.27;;;12.13;;
20445;SDS011;10382;49.140;9.234;2024-01-15T05:22:29;31.20;;;12.57;;
20445;SDS011;10382;49.140;9.234;2024-01-15T05:24:56;23.95;;;11.82;;
20445;SDS011;10382;49.140;9.234;2024-01-15T05:27:23;25.60;;;12.77;;
20445;SDS011;10382;49.140;9.234;2024-01-15T05:29:50;25.58;;;11.77;;
20445;SDS011;10382;49.140;9.234;2024-01-15T05:32:18;26.02;;;11.80;;
20445;SDS011;10382;49.140;9.234;2024-01-15T05:34:45;25.73;;;12.88;;
20445;SDS011;10382;49.140;9.234;2024-01-15T05:37:12;24.13;;;12.02;;
20445;SDS011;10382;49.140;9.234;2024-01-15T05:39:39;30.83;;;11.65;;
20445;SDS011;10382;49.140;9.234;2024-01-15T05:42:06;35.08;;;14.35;;
20445;SDS011;10382;49.140;9.234;2024-01-15T05:44:33;35.83;;;14.52;;
20445;SDS011;10382;49.140;9.234;2024-01-15T05:47:00;30.95;;;12.95;;
20445;SDS011;10382;49.140;9.234;2024-01-15T05:49:28;31.70;;;13.85;;
20445;SDS011;10382;49.140;9.234;2024-01-15T05:51:54;27.38;;;12.40;;
20445;SDS011;10382;49.140;9.234;2024-01-15T05:54:22;30.30;;;13.05;;
20445;SDS011;10382;49.140;9.234;2024-01-15T05:56:48;35.90;;;13.20;;
20445;SDS011;10382;49.140;9.234;2024-01-15T05:59:15;25.42;;;11.77;;
20445;SDS011;10382;49.140;9.234;2024-01-15T06:01:42;32.17;;;12.93;;
20445;SDS011;10382;49.140;9.234;2024-01-15T06:04:09;32.38;;;13.77;;
20445;SDS011;10382;49.140;9.234;2024-01-15T06:06:37;26.55;;;12.23;;
20445;SDS011;10382;49.140;9.234;2024-01-15T06:09:04;29.58;;;12.45;;
20445;SDS011;10382;49.140;9.234;2024-01-15T06:11:31;26.00;;;11.93;;
20445;SDS011;10382;49.140;9.234;2024-01-15T06:13:58;26.67;;;13.63;;
20445;SDS011;10382;49.140;9.234;2024-01-15T06:16:26;28.30;;;13.43;;
20445;SDS011;10382;49.140;9.234;2024-01-15T06:18:53;30.02;;;12.73;;
20445;SDS011;10382;49.140;9.234;2024-01-15T06:21:19;25.65;;;11.02;;
20445;SDS011;10382;49.140;9.234;2024-01-15T06:23:48;24.95;;;11.65;;
20445;SDS011;10382;49.140;9.234;2024-01-15T06:26:15;30.80;;;13.50;;
20445;SDS011;10382;49.140;9.234;2024-01-15T06:28:41;19.58;;;10.48;;
20445;SDS011;10382;49.140;9.234;2024-01-15T06:31:08;37.08;;;11.15;;
20445;SDS011;10382;49.140;9.234;2024-01-15T06:33:35;29.48;;;12.30;;
20445;SDS011;10382;49.140;9.234;2024-01-15T06:36:03;31.50;;;12.65;;
20445;SDS011;10382;49.140;9.234;2024-01-15T06:38:30;28.05;;;12.90;;
20445;SDS011;10382;49.140;9.234;2024-01-15T06:40:58;23.98;;;11.38;;
20445;SDS011;10382;49.140;9.234;2024-01-15T06:43:26;20.27;;;10.70;;
20445;SDS011;10382;49.140;9.234;2024-01-15T06:45:53;24.95;;;11.60;;
20445;SDS011;10382;49.140;9.234;2024-01-15T06:48:19;23.20;;;11.30;;
20445;SDS011;10382;49.140;9.234;2024-01-15T06:50:46;27.77;;;11.80;;
20445;SDS011;10382;49.140;9.234;2024-01-15T06:53:13;24.98;;;12.45;;
20445;SDS011;10382;49.140;9.234;2024-01-15T06:55:40;22.35;;;10.05;;
20445;SDS011;10382;49.140;9.234;2024-01-15T06:58:08;23.50;;;11.48;;
20445;SDS011;10382;49.140;9.234;2024-01-15T07:00:35;30.35;;;12.43;;
20445;SDS011;10382;49.140;9.234;2024-01-15T07:03:03;25.20;;;10.93;;
20445;SDS011;10382;49.140;9.234;2024-01-15T07:05:30;26.38;;;13.20;;
20445;SDS011;10382;49.140;9.234;2024-01-15T07:07:57;29.08;;;11.30;;
20445;SDS011;10382;49.140;9.234;2024-01-15T07:10:24;22.05;;;10.52;;
20445;SDS011;10382;49.140;9.234;2024-01-15T07:12:51;21.27;;;9.88;;
20445;SDS011;10382;49.140;9.234;2024-01-15T07:15:20;20.75;;;11.23;;
20445;SDS011;10382;49.140;9.234;2024-01-15T07:17:47;22.05;;;11.27;;
20445;SDS011;10382;49.140;9.234;2024-01-15T07:20:13;32.85;;;12.70;;
20445;SDS011;10382;49.140;9.234;2024-01-15T07:22:40;22.00;;;10.25;;
20445;SDS011;10382;49.140;9.234;2024-01-15T07:25:07;24.13;;;11.93;;
20445;SDS011;10382;49.140;9.234;2024-01-15T07:27:34;25.80;;;12.07;;
20445;SDS011;10382;49.140;9.234;2024-01-15T07:30:01;27.13;;;11.27;;
20445;SDS011;10382;49.140;9.234;2024-01-15T07:32:31;26.25;;;10.48;;
20445;SDS011;10382;49.140;9.234;2024-01-15T07:34:58;27.73;;;11.45;;
20445;SDS011;10382;49.140;9.234;2024-01-15T07:37:25;24.30;;;11.15;;
20445;SDS011;10382;49.140;9.234;2024-01-15T07:39:53;25.38;;;10.85;;
20445;SDS011;10382;49.140;9.234;2024-01-15T07:42:20;22.85;;;11.13;;
20445;SDS011;10382;49.140;9.234;2024-01-15T07:44:47;31.17;;;12.60;;
20445;SDS011;10382;49.140;9.234;2024-01-15T07:47:16;27.75;;;13.02;;
20445;SDS011;10382;49.140;9.234;2024-01-15T07:49:44;37.28;;;14.48;;
20445;SDS011;10382;49.140;9.234;2024-01-15T07:52:11;27.90;;;13.52;;
20445;SDS011;10382;49.140;9.234;2024-01-15T07:54:38;23.27;;;12.88;;
20445;SDS011;10382;49.140;9.234;2024-01-15T07:57:05;28.92;;;12.25;;
20445;SDS011;10382;49.140;9.234;2024-01-15T07:59:32;29.58;;;12.82;;
20445;SDS011;10382;49.140;9.234;2024-01-15T08:02:00;31.70;;;13.90;;
20445;SDS011;10382;49.140;9.234;2024-01-15T08:04:27;31.20;;;13.75;;
20445;SDS011;10382;49.140;9.234;2024-01-15T08:06:55;33.08;;;13.57;;
20445;SDS011;10382;49.140;9.234;2024-01-15T08:09:23;28.10;;;12.82;;
20445;SDS011;10382;49.140;9.234;2024-01-15T08:11:50;24.63;;;13.20;;
20445;SDS011;10382;49.140;9.234;2024-01-15T08:14:17;32.50;;;14.57;;
20445;SDS011;10382;49.140;9.234;2024-01-15T08:16:44;34.33;;;13.77;;
20445;SDS011;10382;49.140;9.234;2024-01-15T08:19:11;34.67;;;17.25;;
20445;SDS011;10382;49.140;9.234;2024-01-15T08:21:39;32.72;;;14.60;;
20445;SDS011;10382;49.140;9.234;2024-01-15T08:24:07;26.83;;;13.73;;
20445;SDS011;10382;49.140;9.234;2024-01-15T08:26:34;29.90;;;14.05;;
20445;SDS011;10382;49.140;9.234;2024-01-15T08:29:01;28.27;;;13.88;;
20445;SDS011;10382;49.140;9.234;2024-01-15T08:31:28;36.45;;;16.25;;
20445;SDS011;10382;49.140;9.234;2024-01-15T08:33:55;32.70;;;14.10;;
20445;SDS011;10382;49.140;9.234;2024-01-15T08:36:22;31.52;;;13.70;;
20445;SDS011;10382;49.140;9.234;2024-01-15T08:38:49;26.48;;;13.40;;
20445;SDS011;10382;49.140;9.234;2024-01-15T08:41:17;32.17;;;13.77;;
20445;SDS011;10382;49.140;9.234;2024-01-15T08:43:44;29.98;;;14.13;;
20445;SDS011;10382;49.140;9.234;2024-01-15T08:46:11;39.17;;;15.80;;
20445;SDS011;10382;49.140;9.234;2024-01-15T08:48:38;28.25;;;13.75;;
20445;SDS011;10382;49.140;9.234;2024-01-15T08:51:05;32.30;;;14.98;;
20445;SDS011;10382;49.140;9.234;2024-01-15T08:53:33;26.20;;;12.48;;
20445;SDS011;10382;49.140;9.234;2024-01-15T08:55:59;21.45;;;11.52;;
20445;SDS011;10382;49.140;9.234;2024-01-15T08:58:28;25.85;;;12.38;;
20445;SDS011;10382;49.140;9.234;2024-01-15T09:00:55;42.60;;;12.68;;
20445;SDS011;10382;49.140;9.234;2024-01-15T09:03:21;35.28;;;13.18;;
20445;SDS011;10382;49.140;9.234;2024-01-15T09:05:48;24.88;;;11.60;;
20445;SDS011;10382;49.140;9.234;2024-01-15T09:08:16;27.60;;;11.40;;
20445;SDS011;10382;49.140;9.234;2024-01-15T09:10:43;23.00;;;12.15;;
20445;SDS011;10382;49.140;9.234;2024-01-15T09:13:10;26.70;;;11.88;;
20445;SDS011;10382;49.140;9.234;2024-01-15T09:15:39;23.58;;;12.68;;
20445;SDS011;10382;49.140;9.234;2024-01-15T09:18:06;23.25;;;11.30;;
20445;SDS011;10382;49.140;9.234;2024-01-15T09:20:32;25.70;;;11.37;;
20445;SDS011;10382;49.140;9.234;2024-01-15T09:22:58;22.52;;;9.90;;
20445;SDS011;10382;49.140;9.234;2024-01-15T09:25:25;28.23;;;11.80;;
20445;SDS011;10382;49.140;9.234;2024-01-15T09:27:52;37.05;;;12.45;;
20445;SDS011;10382;49.140;9.234;2024-01-15T09:30:19;19.90;;;10.05;;
20445;SDS011;10382;49.140;9.234;2024-01-15T09:32:47;23.92;;;10.85;;
20445;SDS011;10382;49.140;9.234;2024-01-15T09:35:14;23.77;;;9.77;;
20445;SDS011;10382;49.140;9.234;2024-01-15T09:37:41;21.58;;;12.25;;
20445;SDS011;10382;49.140;9.234;2024-01-15T09:40:09;19.75;;;9.82;;
20445;SDS011;10382;49.140;9.234;2024-01-15T09:42:40;27.10;;;12.13;;
20445;SDS011;10382;49.140;9.234;2024-01-15T09:45:08;31.02;;;9.93;;
20445;SDS011;10382;49.140;9.234;2024-01-15T09:47:36;25.15;;;9.80;;
20445;SDS011;10382;49.140;9.234;2024-01-15T09:50:05;15.95;;;9.43;;
20445;SDS011;10382;49.140;9.234;2024-01-15T09:52:32;22.30;;;9.38;;
20445;SDS011;10382;49.140;9.234;2024-01-15T09:55:01;16.30;;;9.10;;
20445;SDS011;10382;49.140;9.234;2024-01-15T09:57:30;19.50;;;8.60;;
20445;SDS011;10382;49.140;9.234;2024-01-15T09:59:58;21.80;;;9.13;;
20445;SDS011;10382;49.140;9.234;2024-01-15T10:02:29;22.95;;;10.88;;
20445;SDS011;10382;49.140;9.234;2024-01-15T10:04:56;16.50;;;9.52;;
20445;SDS011;10382;49.140;9.234;2024-01-15T10:07:25;17.45;;;9.73;;
20445;SDS011;10382;49.140;9.234;2024-01-15T10:09:53;19.30;;;11.38;;
20445;SDS011;10382;49.140;9.234;2024-01-15T10:12:20;19.92;;;8.32;;
20445;SDS011;10382;49.140;9.234;2024-01-15T10:14:48;23.98;;;10.25;;
20445;SDS011;10382;49.140;9.234;2024-01-15T10:17:17;23.05;;;9.18;;
20445;SDS011;10382;49.140;9.234;2024-01-15T10:19:44;13.55;;;7.90;;
20445;SDS011;10382;49.140;9.234;2024-01-15T10:22:12;17.52;;;9.38;;
20445;SDS011;10382;49.140;9.234;2024-01-15T10:24:41;13.95;;;7.50;;
20445;SDS011;10382;49.140;9.234;2024-01-15T10:27:08;15.50;;;8.57;;
20445;SDS011;10382;49.140;9.234;2024-01-15T10:29:36;13.70;;;9.00;;
20445;SDS011;10382;49.140;9.234;2024-01-15T10:32:03;18.20;;;8.85;;
20445;SDS011;10382;49.140;9.234;2024-01-15T10:34:33;17.48;;;9.23;;
20445;SDS011;10382;49.140;9.234;2024-01-15T10:37:03;18.08;;;8.50;;
20445;SDS011;10382;49.140;9.234;2024-01-15T10:39:30;14.00;;;8.63;;
20445;SDS011;10382;49.140;9.234;2024-01-15T10:41:59;17.38;;;8.23;;
20445;SDS011;10382;49.140;9.234;2024-01-15T10:44:26;19.42;;;9.88;;
20445;SDS011;10382;49.140;9.234;2024-01-15T10:46:53;20.75;;;10.40;;
20445;SDS011;10382;49.140;9.234;2024-01-15T10:49:22;21.75;;;8.52;;
20445;SDS011;10382;49.140;9.234;2024-01-15T10:51:51;16.23;;;8.80;;
20445;SDS011;10382;49.140;9.234;2024-01-15T10:54:19;26.05;;;9.45;;
20445;SDS011;10382;49.140;9.234;2024-01-15T10:56:48;23.45;;;10.50;;
20445;SDS011;10382;49.140;9.234;2024-01-15T10:59:17;20.55;;;9.90;;
20445;SDS011;10382;49.140;9.234;2024-01-15T11:01:46;19.48;;;9.50;;
20445;SDS011;10382;49.140;9.234;2024-01-15T11:04:13;21.08;;;10.57;;
20445;SDS011;10382;49.140;9.234;2024-01-15T11:06:42;21.80;;;11.00;;
20445;SDS011;10382;49.140;9.234;2024-01-15T11:09:11;22.15;;;10.15;;
20445;SDS011;10382;49.140;9.234;2024-01-15T11:11:40;18.83;;;9.73;;
20445;SDS011;10382;49.140;9.234;2024-01-15T11:14:08;17.52;;;9.75;;
20445;SDS011;10382;49.140;9.234;2024-01-15T11:16:55;32.33;;;11.02;;
20445;SDS011;10382;49.140;9.234;2024-01-15T11:19:24;20.25;;;10.85;;
20445;SDS011;10382;49.140;9.234;2024-01-15T11:21:52;25.33;;;10.55;;
20445;SDS011;10382;49.140;9.234;2024-01-15T11:27:02;20.83;;;10.85;;
20445;SDS011;10382;49.140;9.234;2024-01-15T11:29:29;22.95;;;11.32;;
20445;SDS011;10382;49.140;9.234;2024-01-15T11:32:00;22.08;;;9.90;;
20445;SDS011;10382;49.140;9.234;2024-01-15T11:37:15;22.45;;;10.02;;
20445;SDS011;10382;49.140;9.234;2024-01-15T11:39:42;26.92;;;11.90;;
20445;SDS011;10382;49.140;9.234;2024-01-15T11:42:09;31.20;;;11.80;;
20445;SDS011;10382;49.140;9.234;2024-01-15T11:44:37;27.55;;;10.70;;
20445;SDS011;10382;49.140;9.234;2024-01-15T11:47:06;25.92;;;11.60;;
20445;SDS011;10382;49.140;9.234;2024-01-15T11:49:42;21.90;;;11.75;;
20445;SDS011;10382;49.140;9.234;2024-01-15T11:52:24;22.88;;;9.85;;
20445;SDS011;10382;49.140;9.234;2024-01-15T11:54:53;22.52;;;11.05;;
20445;SDS011;10382;49.140;9.234;2024-01-15T11:57:28;25.45;;;11.30;;
20445;SDS011;10382;49.140;9.234;2024-01-15T12:00:03;24.17;;;9.68;;
20445;SDS011;10382;49.140;9.234;2024-01-15T12:02:33;21.63;;;10.85;;
20445;SDS011;10382;49.140;9.234;2024-01-15T12:05:00;27.20;;;12.02;;
20445;SDS011;10382;49.140;9.234;2024-01-15T12:07:28;26.83;;;9.90;;
20445;SDS011;10382;49.140;9.234;2024-01-15T12:09:54;28.50;;;9.65;;
20445;SDS011;10382;49.140;9.234;2024-01-15T12:12:24;32.00;;;11.02;;
20445;SDS011;10382;49.140;9.234;2024-01-15T12:14:55;19.67;;;9.48;;
20445;SDS011;10382;49.140;9.234;2024-01-15T12:17:22;24.23;;;10.45;;
20445;SDS011;10382;49.140;9.234;2024-01-15T12:19:51;20.27;;;9.43;;
20445;SDS011;10382;49.140;9.234;2024-01-15T12:22:18;23.20;;;10.02;;
20445;SDS011;10382;49.140;9.234;2024-01-15T12:24:44;17.00;;;10.05;;
20445;SDS011;10382;49.140;9.234;2024-01-15T12:27:11;15.45;;;9.90;;
20445;SDS011;10382;49.140;9.234;2024-01-15T12:29:38;19.27;;;9.98;;
20445;SDS011;10382;49.140;9.234;2024-01-15T12:32:05;21.55;;;8.27;;
20445;SDS011;10382;49.140;9.234;2024-01-15T12:34:33;12.32;;;8.13;;
20445;SDS011;10382;49.140;9.234;2024-01-15T12:37:01;42.70;;;10.07;;
20445;SDS011;10382;49.140;9.234;2024-01-15T12:39:28;15.52;;;7.40;;
20445;SDS011;10382;49.140;9.234;2024-01-15T12:41:55;15.90;;;7.05;;
20445;SDS011;10382;49.140;9.234;2024-01-15T12:44:22;11.95;;;7.03;;
20445;SDS011;10382;49.140;9.234;2024-01-15T12:46:49;11.55;;;7.35;;
20445;SDS011;10382;49.140;9.234;2024-01-15T12:49:17;15.73;;;8.55;;
20445;SDS011;10382;49.140;9.234;2024-01-15T12:51:49;14.90;;;7.82;;
20445;SDS011;10382;49.140;9.234;2024-01-15T12:54:20;17.27;;;8.65;;
20445;SDS011;10382;49.140;9.234;2024-01-15T12:56:46;15.43;;;7.90;;
20445;SDS011;10382;49.140;9.234;2024-01-15T12:59:13;17.40;;;9.15;;
20445;SDS011;10382;49.140;9.234;2024-01-15T13:01:40;28.65;;;15.48;;
20445;SDS011;10382;49.140;9.234;2024-01-15T13:04:07;33.25;;;14.57;;
20445;SDS011;10382;49.140;9.234;2024-01-15T13:06:34;19.48;;;8.85;;
20445;SDS011;10382;49.140;9.234;2024-01-15T13:09:02;18.80;;;8.77;;
20445;SDS011;10382;49.140;9.234;2024-01-15T13:11:31;31.05;;;12.82;;
20445;SDS011;10382;49.140;9.234;2024-01-15T13:13:58;18.25;;;10.43;;
20445;SDS011;10382;49.140;9.234;2024-01-15T13:16:25;18.17;;;10.18;;
20445;SDS011;10382;49.140;9.234;2024-01-15T13:18:54;15.10;;;8.68;;
20445;SDS011;10382;49.140;9.234;2024-01-15T13:21:21;16.85;;;8.55;;
20445;SDS011;10382;49.140;9.234;2024-01-15T13:23:48;23.45;;;9.52;;
20445;SDS011;10382;49.140;9.234;2024-01-15T13:26:16;20.55;;;10.32;;
20445;SDS011;10382;49.140;9.234;2024-01-15T13:28:45;15.02;;;8.23;;
20445;SDS011;10382;49.140;9.234;2024-01-15T13:31:12;14.50;;;8.65;;
20445;SDS011;10382;49.140;9.234;2024-01-15T13:33:39;13.65;;;7.70;;
20445;SDS011;10382;49.140;9.234;2024-01-15T13:36:06;17.73;;;10.27;;
20445;SDS011;10382;49.140;9.234;2024-01-15T13:38:35;12.68;;;8.18;;
20445;SDS011;10382;49.140;9.234;2024-01-15T13:41:03;15.50;;;8.70;;
20445;SDS011;10382;49.140;9.234;2024-01-15T13:43:30;22.38;;;11.07;;
20445;SDS011;10382;49.140;9.234;2024-01-15T13:45:59;15.27;;;9.32;;
20445;SDS011;10382;49.140;9.234;2024-01-15T13:48:29;12.95;;;9.30;;
20445;SDS011;10382;49.140;9.234;2024-01-15T13:50:56;17.70;;;9.82;;
20445;SDS011;10382;49.140;9.234;2024-01-15T13:53:24;20.38;;;9.75;;
20445;SDS011;10382;49.140;9.234;2024-01-15T13:55:51;15.27;;;9.27;;
20445;SDS011;10382;49.140;9.234;2024-01-15T13:58:18;15.55;;;10.00;;
20445;SDS011;10382;49.140;9.234;2024-01-15T14:00:46;17.90;;;10.15;;
20445;SDS011;10382;49.140;9.234;2024-01-15T14:03:14;15.82;;;9.32;;
20445;SDS011;10382;49.140;9.234;2024-01-15T14:05:41;18.10;;;10.07;;
20445;SDS011;10382;49.140;9.234;2024-01-15T14:08:08;15.10;;;9.35;;
20445;SDS011;10382;49.140;9.234;2024-01-15T14:10:35;16.08;;;9.70;;
20445;SDS011;10382;49.140;9.234;2024-01-15T14:13:02;19.70;;;12.05;;
20445;SDS011;10382;49.140;9.234;2024-01-15T14:15:30;16.25;;;9.95;;
20445;SDS011;10382;49.140;9.234;2024-01-15T14:17:56;16.70;;;9.05;;
20445;SDS011;10382;49.140;9.234;2024-01-15T14:20:26;16.52;;;10.85;;
20445;SDS011;10382;49.140;9.234;2024-01-15T14:22:53;15.30;;;10.23;;
20445;SDS011;10382;49.140;9.234;2024-01-15T14:25:20;15.25;;;9.75;;
20445;SDS011;10382;49.140;9.234;2024-01-15T14:27:47;15.98;;;9.60;;
20445;SDS011;10382;49.140;9.234;2024-01-15T14:30:14;21.30;;;9.90;;